Flight Track Log - Related Links

Times and Time Zones

All times are in EDT time to prevent confusion due to time zone crossing. See the N400TM flight status page for this flight to view local times or setup timezone preferences in your user account.

Time Position Orientation Groundspeed Altitude Reporting Facility
EDT Latitude Longitude Course Direction KTS MPH feet Rate Location/Type
Wed 10:27:22 AM 33.5500 -112.1000 203° Southwest 160 184 2,900  Level Phoenix TRACON
Wed 10:28:28 AM 33.5167 -112.0833 157° South 123 142 3,500 650 Climbing Phoenix TRACON
Wed 10:29:22 AM 33.5000 -112.0667 140° Southeast 112 129 4,200 783 Climbing Phoenix TRACON
Wed 10:30:23 AM 33.4833 -112.0500 140° Southeast 109 125 5,000 694 Climbing Phoenix TRACON
Wed 10:31:23 AM 33.4500 -112.0500 180° South 117 135 5,600 550 Climbing Phoenix TRACON
Wed 10:32:23 AM 33.4167 -112.0500 180° South 125 144 6,100 246 Climbing Phoenix TRACON
Wed 10:33:25 AM 33.3733 -112.0414 171° South 144 166 6,100 -48 Level Albuquerque Center
Wed 10:34:27 AM 33.3358 -112.0128 147° Southeast 157 181 6,000 -48 Descending Albuquerque Center
Wed 10:35:29 AM 33.2953 -111.9875 152° Southeast 164 189 6,000  Level Albuquerque Center
Wed 10:36:31 AM 33.2544 -111.9611 152° Southeast 166 191 6,000 48 Level Albuquerque Center
Wed 10:37:33 AM 33.2144 -111.9356 152° Southeast 164 189 6,100 145 Climbing Albuquerque Center
Wed 10:38:35 AM 33.1753 -111.9103 152° Southeast 160 184 6,300 290 Climbing Albuquerque Center
Wed 10:39:37 AM 33.1300 -111.8811 152° Southeast 155 178 6,700 532 Climbing Albuquerque Center
Wed 10:40:39 AM 33.0964 -111.8617 154° Southeast 137 158 7,400 677 Climbing Albuquerque Center
Wed 10:42:00 AM 33.0532 -111.8351 152° Southeast  Level Estimated
Wed 10:49:00 AM 32.8445 -111.6572 154° Southeast  Level FlightAware Approximate
Wed 10:50:00 AM 32.8123 -111.6381 154° Southeast  Level FlightAware Approximate
Wed 10:51:00 AM 32.7800 -111.6190 154° Southeast  Level FlightAware Approximate
Wed 10:52:00 AM 32.7478 -111.6000 154° Southeast  Level FlightAware Approximate
Wed 10:53:00 AM 32.7156 -111.5809 154° Southeast  Level FlightAware Approximate
Wed 10:54:00 AM 32.6834 -111.5619 154° Southeast  Level FlightAware Approximate
Wed 10:55:00 AM 32.6511 -111.5429 154° Southeast  Level FlightAware Approximate
Wed 10:56:00 AM 32.6189 -111.5239 154° Southeast  Level FlightAware Approximate
Wed 10:57:00 AM 32.5867 -111.5049 154° Southeast  Level FlightAware Approximate
Wed 10:58:00 AM 32.5544 -111.4859 154° Southeast  Level FlightAware Approximate
Wed 10:59:00 AM 32.5218 -111.4679 155° Southeast  Level FlightAware Approximate
Wed 11:00:00 AM 32.4891 -111.4501 155° Southeast  Level FlightAware Approximate
Wed 11:01:00 AM 32.4564 -111.4322 155° Southeast  Level FlightAware Approximate
Wed 11:02:00 AM 32.4237 -111.4144 155° Southeast  Level FlightAware Approximate
Wed 11:03:00 AM 32.3910 -111.3966 155° Southeast  Level FlightAware Approximate
Wed 11:04:00 AM 32.3583 -111.3788 155° Southeast  Level FlightAware Approximate
Wed 11:05:00 AM 32.3256 -111.3610 155° Southeast  Level FlightAware Approximate
Wed 11:06:00 AM 32.2929 -111.3432 155° Southeast  Level FlightAware Approximate
Wed 11:07:00 AM 32.2602 -111.3254 155° Southeast  Level FlightAware Approximate
Wed 11:08:00 AM 32.2275 -111.3077 155° Southeast  Level FlightAware Approximate
Wed 11:09:00 AM 32.1948 -111.2900 155° Southeast  Level FlightAware Approximate
Wed 11:10:00 AM 32.1621 -111.2722 155° Southeast  Level FlightAware Approximate
Wed 11:11:00 AM 32.1293 -111.2545 155° Southeast  Level FlightAware Approximate
Wed 11:12:00 AM 32.0966 -111.2368 155° Southeast  Level FlightAware Approximate
Wed 11:13:00 AM 32.0639 -111.2191 155° Southeast  Level FlightAware Approximate
Wed 11:14:00 AM 32.0312 -111.2015 155° Southeast  Level FlightAware Approximate
Wed 11:15:00 AM 31.9984 -111.1838 155° Southeast  Level FlightAware Approximate
Wed 11:16:00 AM 31.9658 -111.1660 146° Southeast  Level FlightAware Approximate
Wed 11:17:00 AM 31.9360 -111.1421 146° Southeast  Level FlightAware Approximate
Wed 11:18:00 AM 31.9062 -111.1183 146° Southeast  Level FlightAware Approximate
Wed 11:19:00 AM 31.8758 -111.0958 155° Southeast  Level FlightAware Approximate
Wed 11:20:00 AM 31.8433 -111.0777 155° Southeast  Level FlightAware Approximate
Wed 11:21:00 AM 31.8108 -111.0596 155° Southeast  Level FlightAware Approximate
Wed 11:22:00 AM 31.7782 -111.0416 155° Southeast  Level FlightAware Approximate
Wed 11:23:00 AM 31.7457 -111.0235 155° Southeast  Level FlightAware Approximate
Wed 11:24:00 AM 31.7130 -111.0058 156° South  Level FlightAware Approximate
Wed 11:25:00 AM 31.6802 -110.9883 156° South  Level FlightAware Approximate
Wed 11:26:00 AM 31.6475 -110.9708 156° South  Level FlightAware Approximate
Wed 11:27:00 AM 31.6147 -110.9533 156° South  Level FlightAware Approximate
Wed 11:28:00 AM 31.5819 -110.9358 156° South  Level FlightAware Approximate
Wed 11:29:00 AM 31.5492 -110.9184 156° South  Level FlightAware Approximate
Wed 11:30:00 AM 31.5164 -110.9009 156° South  Level FlightAware Approximate
Wed 11:31:00 AM 31.4836 -110.8835 156° South  Level FlightAware Approximate
Wed 11:32:00 AM 31.4533 -110.8608 147° Southeast  Level FlightAware Approximate
Wed 11:33:00 AM 31.4229 -110.8380 147° Southeast  Level FlightAware Approximate
Wed 11:34:00 AM 31.4167 -110.8333 147° Southeast  Level FlightAware Approximate
Wed 11:35:00 AM 31.4177 -110.8479 147° Southeast  Level Estimated
Wed 11:36:00 AM 31.4177 -110.8479 147° Southeast  Level Estimated
Wed 11:37:00 AM 31.4177 -110.8479 147° Southeast  Level Estimated
Wed 11:38:00 AM 31.4177 -110.8479 147° Southeast  Level Estimated
Wed 11:39:00 AM 31.4177 -110.8479 147° Southeast  Level Estimated
Wed 11:40:00 AM 31.4177 -110.8479 147° Southeast  Level Estimated
Wed 11:41:00 AM 31.4177 -110.8479 147° Southeast  Level Estimated
Wed 11:42:00 AM 31.4177 -110.8479 147° Southeast  Level Estimated
Wed 11:43:00 AM 31.4177 -110.8479 147° Southeast  Level Estimated
Wed 11:44:00 AM 31.4177 -110.8479 147° Southeast  Level Estimated

Login

Don't have an account? Register now (free) for customized features, flight alerts, and more!